Wagner, Montana
Current Conditions -  °F | °C
As of 11:53 PM on Friday 24 Oct 2014 (Local Time) from KGGW Reporting Station
Clear Clear  
Wind Chill: 45°   Ceiling: Unl
Heat Index: 45°   Visibility: 10mi
Dew Point: 29°   Wind: 0mph
Humidity: 53%   Direction: NA
Pressure: 30.08"   Gusts: NA
Location:  48.3131°N, 107.89°W
Report Text: KGGW 250553Z AUTO 00000KT 10SM CLR 07/M02 A3008 RMK AO2 SLP192 T00721017 10122 20033 51007
Loading
Personal Weather Stations






























Interactive Weather Map
Tropical Storm Tracking
New forecast layout! Learn more

10-Day Weather Forecast

Advertisements
Track Severe Weather on mobile